PWSweather.com
Personal Weather Stations
Station Observations

PoschiavoCH

Lat: 46.31962499999999, Lon: 10.066551000000004

Elevation: 3517

Station Type: WH 1080

http://www.meteoposchiavo.com

Latest ConditionsUpdated 8:50:01 AM GMT+01:01 Thursday, Jul 18, 2019
Currently Today's Max Today's Min Today's Average
Temperature 58.0°F14.4°C 58.0°F14.4°C 53.0°F11.7°C 54.6°F12.6°C
Dew Point 55.1°F12.8°C 56.0°F13.3°C 52.2°F11.2°C 53.7°F12.1°C
Winds Calm Calm Calm -Calm - - Calm Calm
Wind Gusts -- 1.2 mph1.9 kmh - -
Humidity 90% 98% 90% 97%
Pressure 26.58 in900.1 mb 26.60 in900.8 mb 26.52 in898.1 mb -
Hour Temp Dew Point Humidity Winds Wind Gusts Pressure Precip Precip Rate Daily Precip Total
08:50 AM 58.0°F14.4°C 55.1°F12.8°C 90% Calm Calm -- 26.58 in900.1 mb - 0.00 in0.0 mm 0.00 in0.0 mm
08:45 AM 58.0°F14.4°C 55.4°F13.0°C 91% Calm Calm -- 26.58 in900.1 mb - 0.00 in0.0 mm 0.00 in0.0 mm
08:40 AM 58.0°F14.4°C 55.7°F13.2°C 92% Calm Calm -- 26.59 in900.4 mb - 0.00 in0.0 mm 0.00 in0.0 mm
08:35 AM 58.0°F14.4°C 56.0°F13.3°C 93% Calm Calm -- 26.60 in900.8 mb - 0.00 in0.0 mm 0.00 in0.0 mm
08:30 AM 57.6°F14.2°C 55.6°F13.1°C 93% Calm Calm -- 26.60 in900.8 mb - 0.00 in0.0 mm 0.00 in0.0 mm
08:25 AM 57.0°F13.9°C 55.3°F12.9°C 94% Calm Calm -- 26.60 in900.8 mb - 0.00 in0.0 mm 0.00 in0.0 mm
08:20 AM 57.0°F13.9°C 55.6°F13.1°C 95% Calm Calm -- 26.60 in900.8 mb - 0.00 in0.0 mm 0.00 in0.0 mm
08:15 AM 57.0°F13.9°C 55.6°F13.1°C 95% Calm Calm -- 26.60 in900.8 mb - 0.00 in0.0 mm 0.00 in0.0 mm
08:10 AM 56.0°F13.3°C 54.6°F12.6°C 95% Calm Calm -- 26.60 in900.8 mb - 0.00 in0.0 mm 0.00 in0.0 mm
08:00 AM 56.0°F13.3°C 54.6°F12.6°C 95% Calm Calm -- 26.60 in900.8 mb - 0.00 in0.0 mm 0.00 in0.0 mm
07:55 AM 56.0°F13.3°C 54.6°F12.6°C 95% Calm Calm -- 26.60 in900.8 mb - 0.00 in0.0 mm 0.00 in0.0 mm
07:50 AM 56.0°F13.3°C 54.6°F12.6°C 95% Calm Calm -- 26.60 in900.8 mb - 0.00 in0.0 mm 0.00 in0.0 mm
07:45 AM 56.0°F13.3°C 54.6°F12.6°C 95% Calm Calm -- 26.60 in900.8 mb - 0.00 in0.0 mm 0.00 in0.0 mm
07:40 AM 56.0°F13.3°C 54.6°F12.6°C 95% Calm Calm -- 26.60 in900.8 mb - 0.00 in0.0 mm 0.00 in0.0 mm
07:35 AM 56.0°F13.3°C 54.9°F12.7°C 96% Calm Calm -- 26.60 in900.8 mb - 0.00 in0.0 mm 0.00 in0.0 mm
07:30 AM 56.0°F13.3°C 54.9°F12.7°C 96% Calm Calm -- 26.60 in900.8 mb - 0.00 in0.0 mm 0.00 in0.0 mm
07:25 AM 55.0°F12.8°C 53.6°F12.0°C 95% Calm Calm -- 26.59 in900.4 mb - 0.00 in0.0 mm 0.00 in0.0 mm
07:20 AM 55.0°F12.8°C 53.6°F12.0°C 95% Calm Calm -- 26.59 in900.4 mb - 0.00 in0.0 mm 0.00 in0.0 mm
07:15 AM 55.0°F12.8°C 53.6°F12.0°C 95% Calm Calm -- 26.59 in900.4 mb - 0.00 in0.0 mm 0.00 in0.0 mm
07:10 AM 55.0°F12.8°C 53.6°F12.0°C 95% Calm Calm -- 26.60 in900.8 mb - 0.00 in0.0 mm 0.00 in0.0 mm
07:00 AM 55.0°F12.8°C 53.6°F12.0°C 95% Calm Calm 1.2 mph1.9 kmh 26.59 in900.4 mb - 0.00 in0.0 mm 0.00 in0.0 mm
06:55 AM 55.0°F12.8°C 53.6°F12.0°C 95% Calm Calm 1.2 mph1.9 kmh 26.59 in900.4 mb - 0.00 in0.0 mm 0.00 in0.0 mm
06:50 AM 55.0°F12.8°C 53.9°F12.2°C 96% Calm Calm -- 26.58 in900.1 mb - 0.00 in0.0 mm 0.00 in0.0 mm
06:45 AM 55.0°F12.8°C 53.6°F12.0°C 95% Calm Calm -- 26.58 in900.1 mb - 0.00 in0.0 mm 0.00 in0.0 mm
06:40 AM 55.0°F12.8°C 53.6°F12.0°C 95% Calm Calm -- 26.57 in899.8 mb - 0.00 in0.0 mm 0.00 in0.0 mm
06:35 AM 55.0°F12.8°C 53.6°F12.0°C 95% Calm Calm -- 26.58 in900.1 mb - 0.00 in0.0 mm 0.00 in0.0 mm
06:30 AM 55.0°F12.8°C 53.6°F12.0°C 95% Calm Calm -- 26.56 in899.4 mb - 0.00 in0.0 mm 0.00 in0.0 mm
06:25 AM 55.0°F12.8°C 53.3°F11.8°C 94% Calm Calm -- 26.56 in899.4 mb - 0.00 in0.0 mm 0.00 in0.0 mm
06:20 AM 54.0°F12.2°C 52.6°F11.4°C 95% Calm Calm 1.2 mph1.9 kmh 26.56 in899.4 mb - 0.00 in0.0 mm 0.00 in0.0 mm
06:15 AM 54.0°F12.2°C 52.9°F11.6°C 96% Calm Calm -- 26.56 in899.4 mb - 0.00 in0.0 mm 0.00 in0.0 mm
06:10 AM 54.7°F12.6°C 53.6°F12.0°C 96% Calm Calm 1.2 mph1.9 kmh 26.55 in899.1 mb - 0.00 in0.0 mm 0.00 in0.0 mm
06:00 AM 54.0°F12.2°C 52.9°F11.6°C 96% Calm Calm -- 26.55 in899.1 mb - 0.00 in0.0 mm 0.00 in0.0 mm
05:55 AM 54.0°F12.2°C 53.4°F11.9°C 98% Calm Calm -- 26.54 in898.7 mb - 0.00 in0.0 mm 0.00 in0.0 mm
05:50 AM 54.0°F12.2°C 53.2°F11.8°C 97% Calm Calm -- 26.53 in898.4 mb - 0.00 in0.0 mm 0.00 in0.0 mm
05:45 AM 54.0°F12.2°C 53.4°F11.9°C 98% Calm Calm -- 26.53 in898.4 mb - 0.00 in0.0 mm 0.00 in0.0 mm
05:40 AM 54.0°F12.2°C 53.4°F11.9°C 98% Calm Calm -- 26.53 in898.4 mb - 0.00 in0.0 mm 0.00 in0.0 mm
05:35 AM 53.0°F11.7°C 52.5°F11.4°C 98% Calm Calm -- 26.54 in898.7 mb - 0.00 in0.0 mm 0.00 in0.0 mm
05:30 AM 53.0°F11.7°C 52.5°F11.4°C 98% Calm Calm -- 26.53 in898.4 mb - 0.00 in0.0 mm 0.00 in0.0 mm
05:25 AM 53.0°F11.7°C 52.5°F11.4°C 98% Calm Calm -- 26.52 in898.1 mb - 0.00 in0.0 mm 0.00 in0.0 mm
05:20 AM 53.0°F11.7°C 52.5°F11.4°C 98% Calm Calm -- 26.52 in898.1 mb - 0.00 in0.0 mm 0.00 in0.0 mm
05:15 AM 53.0°F11.7°C 52.5°F11.4°C 98% Calm Calm -- 26.53 in898.4 mb - 0.00 in0.0 mm 0.00 in0.0 mm
05:10 AM 53.0°F11.7°C 52.5°F11.4°C 98% Calm Calm -- 26.53 in898.4 mb - 0.00 in0.0 mm 0.00 in0.0 mm
05:00 AM 53.0°F11.7°C 52.5°F11.4°C 98% Calm Calm -- 26.53 in898.4 mb - 0.00 in0.0 mm 0.00 in0.0 mm
04:55 AM 53.0°F11.7°C 52.5°F11.4°C 98% Calm Calm -- 26.53 in898.4 mb - 0.00 in0.0 mm 0.00 in0.0 mm
04:50 AM 53.0°F11.7°C 52.5°F11.4°C 98% Calm Calm -- 26.53 in898.4 mb - 0.00 in0.0 mm 0.00 in0.0 mm
04:45 AM 53.0°F11.7°C 52.5°F11.4°C 98% Calm Calm -- 26.53 in898.4 mb - 0.00 in0.0 mm 0.00 in0.0 mm
04:40 AM 53.0°F11.7°C 52.5°F11.4°C 98% Calm Calm -- 26.54 in898.7 mb - 0.00 in0.0 mm 0.00 in0.0 mm
04:35 AM 53.0°F11.7°C 52.5°F11.4°C 98% Calm Calm -- 26.53 in898.4 mb - 0.00 in0.0 mm 0.00 in0.0 mm
04:30 AM 53.0°F11.7°C 52.5°F11.4°C 98% Calm Calm -- 26.53 in898.4 mb - 0.00 in0.0 mm 0.00 in0.0 mm
04:25 AM 53.0°F11.7°C 52.5°F11.4°C 98% Calm Calm -- 26.53 in898.4 mb - 0.00 in0.0 mm 0.00 in0.0 mm
04:20 AM 53.0°F11.7°C 52.2°F11.2°C 97% Calm Calm -- 26.53 in898.4 mb - 0.00 in0.0 mm 0.00 in0.0 mm
04:15 AM 53.0°F11.7°C 52.2°F11.2°C 97% Calm Calm -- 26.53 in898.4 mb - 0.00 in0.0 mm 0.00 in0.0 mm
04:10 AM 53.0°F11.7°C 52.2°F11.2°C 97% Calm Calm -- 26.53 in898.4 mb - 0.00 in0.0 mm 0.00 in0.0 mm
04:00 AM 53.0°F11.7°C 52.5°F11.4°C 98% Calm Calm -- 26.52 in898.1 mb - 0.00 in0.0 mm 0.00 in0.0 mm
03:55 AM 53.0°F11.7°C 52.5°F11.4°C 98% Calm Calm -- 26.52 in898.1 mb - 0.00 in0.0 mm 0.00 in0.0 mm
03:50 AM 54.0°F12.2°C 53.4°F11.9°C 98% Calm Calm -- 26.53 in898.4 mb - 0.00 in0.0 mm 0.00 in0.0 mm
03:45 AM 54.0°F12.2°C 53.4°F11.9°C 98% Calm Calm -- 26.52 in898.1 mb - 0.00 in0.0 mm 0.00 in0.0 mm
03:40 AM 54.0°F12.2°C 53.4°F11.9°C 98% Calm Calm -- 26.52 in898.1 mb - 0.00 in0.0 mm 0.00 in0.0 mm
03:35 AM 54.0°F12.2°C 53.4°F11.9°C 98% Calm Calm -- 26.53 in898.4 mb - 0.00 in0.0 mm 0.00 in0.0 mm
03:30 AM 54.0°F12.2°C 53.4°F11.9°C 98% Calm Calm -- 26.52 in898.1 mb - 0.00 in0.0 mm 0.00 in0.0 mm
03:25 AM 54.0°F12.2°C 53.4°F11.9°C 98% Calm Calm -- 26.52 in898.1 mb - 0.00 in0.0 mm 0.00 in0.0 mm
03:20 AM 54.0°F12.2°C 53.4°F11.9°C 98% Calm Calm -- 26.53 in898.4 mb - 0.00 in0.0 mm 0.00 in0.0 mm
03:15 AM 54.0°F12.2°C 53.4°F11.9°C 98% Calm Calm -- 26.52 in898.1 mb - 0.00 in0.0 mm 0.00 in0.0 mm
03:10 AM 54.0°F12.2°C 53.4°F11.9°C 98% Calm Calm -- 26.53 in898.4 mb - 0.00 in0.0 mm 0.00 in0.0 mm
03:00 AM 54.0°F12.2°C 53.4°F11.9°C 98% Calm Calm -- 26.53 in898.4 mb - 0.00 in0.0 mm 0.00 in0.0 mm
02:55 AM 54.2°F12.3°C 53.7°F12.1°C 98% Calm Calm -- 26.53 in898.4 mb - 0.00 in0.0 mm 0.00 in0.0 mm
02:50 AM 55.0°F12.8°C 54.4°F12.4°C 98% Calm Calm -- 26.53 in898.4 mb - 0.00 in0.0 mm 0.00 in0.0 mm
02:45 AM 55.0°F12.8°C 54.4°F12.4°C 98% Calm Calm -- 26.53 in898.4 mb - 0.00 in0.0 mm 0.00 in0.0 mm
02:40 AM 55.0°F12.8°C 54.4°F12.4°C 98% Calm Calm -- 26.53 in898.4 mb - 0.00 in0.0 mm 0.00 in0.0 mm
02:35 AM 55.0°F12.8°C 54.4°F12.4°C 98% Calm Calm -- 26.54 in898.7 mb - 0.00 in0.0 mm 0.00 in0.0 mm
02:30 AM 55.0°F12.8°C 54.4°F12.4°C 98% Calm Calm -- 26.54 in898.7 mb - 0.00 in0.0 mm 0.00 in0.0 mm
02:25 AM 54.0°F12.2°C 53.4°F11.9°C 98% Calm Calm -- 26.54 in898.7 mb - 0.00 in0.0 mm 0.00 in0.0 mm
02:20 AM 54.0°F12.2°C 53.4°F11.9°C 98% Calm Calm -- 26.54 in898.7 mb - 0.00 in0.0 mm 0.00 in0.0 mm
02:15 AM 54.0°F12.2°C 53.4°F11.9°C 98% Calm Calm -- 26.54 in898.7 mb - 0.00 in0.0 mm 0.00 in0.0 mm
02:10 AM 54.0°F12.2°C 53.4°F11.9°C 98% Calm Calm -- 26.54 in898.7 mb - 0.00 in0.0 mm 0.00 in0.0 mm
02:00 AM 54.0°F12.2°C 53.4°F11.9°C 98% Calm Calm -- 26.54 in898.7 mb - 0.00 in0.0 mm 0.00 in0.0 mm
01:55 AM 54.0°F12.2°C 53.4°F11.9°C 98% Calm Calm -- 26.54 in898.7 mb - 0.00 in0.0 mm 0.00 in0.0 mm
01:50 AM 54.0°F12.2°C 53.4°F11.9°C 98% Calm Calm -- 26.54 in898.7 mb - 0.00 in0.0 mm 0.00 in0.0 mm
01:45 AM 54.0°F12.2°C 53.4°F11.9°C 98% Calm Calm -- 26.55 in899.1 mb - 0.00 in0.0 mm 0.00 in0.0 mm
01:40 AM 55.0°F12.8°C 54.4°F12.4°C 98% Calm Calm -- 26.55 in899.1 mb - 0.00 in0.0 mm 0.00 in0.0 mm
01:35 AM 55.0°F12.8°C 54.4°F12.4°C 98% Calm Calm -- 26.54 in898.7 mb - 0.00 in0.0 mm 0.00 in0.0 mm
01:30 AM 55.0°F12.8°C 54.4°F12.4°C 98% Calm Calm -- 26.54 in898.7 mb - 0.00 in0.0 mm 0.00 in0.0 mm
01:25 AM 55.0°F12.8°C 54.4°F12.4°C 98% Calm Calm -- 26.55 in899.1 mb - 0.00 in0.0 mm 0.00 in0.0 mm
01:20 AM 55.0°F12.8°C 54.4°F12.4°C 98% Calm Calm -- 26.55 in899.1 mb - 0.00 in0.0 mm 0.00 in0.0 mm
01:15 AM 55.0°F12.8°C 54.4°F12.4°C 98% Calm Calm -- 26.55 in899.1 mb - 0.00 in0.0 mm 0.00 in0.0 mm
01:10 AM 55.0°F12.8°C 54.4°F12.4°C 98% Calm Calm -- 26.55 in899.1 mb - 0.00 in0.0 mm 0.00 in0.0 mm
01:00 AM 55.0°F12.8°C 54.4°F12.4°C 98% Calm Calm -- 26.55 in899.1 mb - 0.00 in0.0 mm 0.00 in0.0 mm
12:55 AM 55.0°F12.8°C 54.4°F12.4°C 98% Calm Calm -- 26.55 in899.1 mb - 0.00 in0.0 mm 0.00 in0.0 mm
12:50 AM 55.0°F12.8°C 54.4°F12.4°C 98% Calm Calm -- 26.55 in899.1 mb - 0.00 in0.0 mm 0.00 in0.0 mm
12:45 AM 55.0°F12.8°C 54.4°F12.4°C 98% Calm Calm -- 26.55 in899.1 mb - 0.00 in0.0 mm 0.00 in0.0 mm
12:40 AM 55.0°F12.8°C 54.4°F12.4°C 98% Calm Calm -- 26.55 in899.1 mb - 0.00 in0.0 mm 0.00 in0.0 mm
12:35 AM 55.0°F12.8°C 54.4°F12.4°C 98% Calm Calm -- 26.55 in899.1 mb - 0.00 in0.0 mm 0.00 in0.0 mm
12:30 AM 55.0°F12.8°C 54.4°F12.4°C 98% Calm Calm -- 26.55 in899.1 mb - 0.00 in0.0 mm 0.00 in0.0 mm
12:25 AM 55.0°F12.8°C 54.4°F12.4°C 98% Calm Calm -- 26.55 in899.1 mb - 0.00 in0.0 mm 0.00 in0.0 mm
12:20 AM 55.0°F12.8°C 54.4°F12.4°C 98% Calm Calm -- 26.56 in899.4 mb - 0.00 in0.0 mm 0.00 in0.0 mm
12:15 AM 55.0°F12.8°C 54.4°F12.4°C 98% Calm Calm -- 26.55 in899.1 mb - 0.00 in0.0 mm 0.00 in0.0 mm
12:10 AM 55.0°F12.8°C 54.4°F12.4°C 98% Calm Calm -- 26.55 in899.1 mb - 0.00 in0.0 mm 0.00 in0.0 mm
12:00 AM 55.0°F12.8°C 54.4°F12.4°C 98% Calm Calm -- 26.55 in899.1 mb - 0.00 in0.0 mm 0.00 in0.0 mm